sensor_id;sensor_type;location;lat;lon;timestamp;P1;durP1;ratioP1;P2;durP2;ratioP2
13847;SDS011;6994;49.752;6.094;2023-04-09T00:00:11;18.90;;;14.98;;
13847;SDS011;6994;49.752;6.094;2023-04-09T00:02:38;19.23;;;15.02;;
13847;SDS011;6994;49.752;6.094;2023-04-09T00:05:05;21.05;;;18.77;;
13847;SDS011;6994;49.752;6.094;2023-04-09T00:07:33;21.52;;;16.10;;
13847;SDS011;6994;49.752;6.094;2023-04-09T00:10:01;22.90;;;16.25;;
13847;SDS011;6994;49.752;6.094;2023-04-09T00:12:28;22.52;;;15.80;;
13847;SDS011;6994;49.752;6.094;2023-04-09T00:14:55;22.73;;;16.75;;
13847;SDS011;6994;49.752;6.094;2023-04-09T00:17:22;27.08;;;21.30;;
13847;SDS011;6994;49.752;6.094;2023-04-09T00:19:49;21.25;;;16.48;;
13847;SDS011;6994;49.752;6.094;2023-04-09T00:22:17;25.88;;;16.55;;
13847;SDS011;6994;49.752;6.094;2023-04-09T00:24:44;21.20;;;15.27;;
13847;SDS011;6994;49.752;6.094;2023-04-09T00:27:11;24.63;;;16.58;;
13847;SDS011;6994;49.752;6.094;2023-04-09T00:29:39;26.95;;;17.20;;
13847;SDS011;6994;49.752;6.094;2023-04-09T00:32:07;27.73;;;17.45;;
13847;SDS011;6994;49.752;6.094;2023-04-09T00:34:35;24.95;;;17.60;;
13847;SDS011;6994;49.752;6.094;2023-04-09T00:37:02;25.75;;;18.33;;
13847;SDS011;6994;49.752;6.094;2023-04-09T00:39:29;26.55;;;17.37;;
13847;SDS011;6994;49.752;6.094;2023-04-09T00:41:57;26.35;;;16.95;;
13847;SDS011;6994;49.752;6.094;2023-04-09T00:44:24;22.95;;;16.37;;
13847;SDS011;6994;49.752;6.094;2023-04-09T00:46:51;22.00;;;16.55;;
13847;SDS011;6994;49.752;6.094;2023-04-09T00:49:18;26.08;;;16.77;;
13847;SDS011;6994;49.752;6.094;2023-04-09T00:51:45;28.05;;;18.23;;
13847;SDS011;6994;49.752;6.094;2023-04-09T00:54:13;25.42;;;17.60;;
13847;SDS011;6994;49.752;6.094;2023-04-09T00:56:41;30.50;;;24.10;;
13847;SDS011;6994;49.752;6.094;2023-04-09T00:59:08;23.40;;;17.02;;
13847;SDS011;6994;49.752;6.094;2023-04-09T01:01:36;21.37;;;16.10;;
13847;SDS011;6994;49.752;6.094;2023-04-09T01:04:03;25.92;;;22.10;;
13847;SDS011;6994;49.752;6.094;2023-04-09T01:12:02;24.40;;;18.75;;
13847;SDS011;6994;49.752;6.094;2023-04-09T01:17:29;27.30;;;17.90;;
13847;SDS011;6994;49.752;6.094;2023-04-09T01:20:07;22.65;;;17.12;;
13847;SDS011;6994;49.752;6.094;2023-04-09T01:26:02;20.40;;;15.10;;
13847;SDS011;6994;49.752;6.094;2023-04-09T01:30:38;24.30;;;18.42;;
13847;SDS011;6994;49.752;6.094;2023-04-09T01:33:06;22.48;;;16.52;;
13847;SDS011;6994;49.752;6.094;2023-04-09T01:35:33;24.27;;;17.25;;
13847;SDS011;6994;49.752;6.094;2023-04-09T01:38:00;27.10;;;19.48;;
13847;SDS011;6994;49.752;6.094;2023-04-09T01:40:28;30.48;;;19.95;;
13847;SDS011;6994;49.752;6.094;2023-04-09T01:42:56;27.02;;;19.42;;
13847;SDS011;6994;49.752;6.094;2023-04-09T01:45:23;28.30;;;18.08;;
13847;SDS011;6994;49.752;6.094;2023-04-09T01:47:50;33.88;;;25.48;;
13847;SDS011;6994;49.752;6.094;2023-04-09T01:50:17;28.83;;;21.30;;
13847;SDS011;6994;49.752;6.094;2023-04-09T01:52:44;28.45;;;20.77;;
13847;SDS011;6994;49.752;6.094;2023-04-09T01:55:12;27.02;;;18.70;;
13847;SDS011;6994;49.752;6.094;2023-04-09T01:57:39;29.02;;;19.58;;
13847;SDS011;6994;49.752;6.094;2023-04-09T02:00:06;33.47;;;20.25;;
13847;SDS011;6994;49.752;6.094;2023-04-09T02:02:35;26.70;;;18.25;;
13847;SDS011;6994;49.752;6.094;2023-04-09T02:05:03;26.85;;;19.73;;
13847;SDS011;6994;49.752;6.094;2023-04-09T02:07:41;24.87;;;18.55;;
13847;SDS011;6994;49.752;6.094;2023-04-09T02:10:12;29.35;;;18.92;;
13847;SDS011;6994;49.752;6.094;2023-04-09T02:12:41;25.60;;;18.17;;
13847;SDS011;6994;49.752;6.094;2023-04-09T02:15:07;26.25;;;18.12;;
13847;SDS011;6994;49.752;6.094;2023-04-09T02:17:35;27.25;;;18.33;;
13847;SDS011;6994;49.752;6.094;2023-04-09T02:20:03;26.92;;;18.50;;
13847;SDS011;6994;49.752;6.094;2023-04-09T02:22:31;30.37;;;19.37;;
13847;SDS011;6994;49.752;6.094;2023-04-09T02:24:58;27.67;;;19.12;;
13847;SDS011;6994;49.752;6.094;2023-04-09T02:27:25;25.90;;;18.25;;
13847;SDS011;6994;49.752;6.094;2023-04-09T02:29:52;28.80;;;19.10;;
13847;SDS011;6994;49.752;6.094;2023-04-09T02:32:19;33.00;;;20.00;;
13847;SDS011;6994;49.752;6.094;2023-04-09T02:34:47;30.60;;;19.37;;
13847;SDS011;6994;49.752;6.094;2023-04-09T02:37:15;24.90;;;17.55;;
13847;SDS011;6994;49.752;6.094;2023-04-09T02:39:42;27.90;;;18.52;;
13847;SDS011;6994;49.752;6.094;2023-04-09T02:42:09;26.42;;;18.98;;
13847;SDS011;6994;49.752;6.094;2023-04-09T02:44:36;33.67;;;25.60;;
13847;SDS011;6994;49.752;6.094;2023-04-09T02:47:03;26.37;;;19.17;;
13847;SDS011;6994;49.752;6.094;2023-04-09T02:49:31;32.08;;;25.10;;
13847;SDS011;6994;49.752;6.094;2023-04-09T02:51:58;26.58;;;19.65;;
13847;SDS011;6994;49.752;6.094;2023-04-09T02:54:25;32.03;;;20.77;;
13847;SDS011;6994;49.752;6.094;2023-04-09T02:56:53;30.90;;;19.23;;
13847;SDS011;6994;49.752;6.094;2023-04-09T02:59:21;28.77;;;19.70;;
13847;SDS011;6994;49.752;6.094;2023-04-09T03:01:49;35.97;;;22.37;;
13847;SDS011;6994;49.752;6.094;2023-04-09T03:04:16;31.75;;;21.12;;
13847;SDS011;6994;49.752;6.094;2023-04-09T03:06:43;32.25;;;21.30;;
13847;SDS011;6994;49.752;6.094;2023-04-09T03:09:11;36.70;;;22.05;;
13847;SDS011;6994;49.752;6.094;2023-04-09T03:11:38;34.17;;;23.25;;
13847;SDS011;6994;49.752;6.094;2023-04-09T03:14:05;47.70;;;32.70;;
13847;SDS011;6994;49.752;6.094;2023-04-09T03:16:32;42.35;;;26.40;;
13847;SDS011;6994;49.752;6.094;2023-04-09T03:18:59;43.05;;;24.80;;
13847;SDS011;6994;49.752;6.094;2023-04-09T03:21:27;45.08;;;26.92;;
13847;SDS011;6994;49.752;6.094;2023-04-09T03:23:55;49.33;;;29.25;;
13847;SDS011;6994;49.752;6.094;2023-04-09T03:26:23;45.28;;;26.77;;
13847;SDS011;6994;49.752;6.094;2023-04-09T03:28:50;42.35;;;25.60;;
13847;SDS011;6994;49.752;6.094;2023-04-09T03:31:18;48.83;;;26.67;;
13847;SDS011;6994;49.752;6.094;2023-04-09T03:33:45;59.97;;;37.95;;
13847;SDS011;6994;49.752;6.094;2023-04-09T03:36:12;47.70;;;28.95;;
13847;SDS011;6994;49.752;6.094;2023-04-09T03:38:39;48.80;;;27.13;;
13847;SDS011;6994;49.752;6.094;2023-04-09T03:41:07;43.72;;;26.73;;
13847;SDS011;6994;49.752;6.094;2023-04-09T03:43:34;41.42;;;26.02;;
13847;SDS011;6994;49.752;6.094;2023-04-09T03:46:09;37.92;;;23.25;;
13847;SDS011;6994;49.752;6.094;2023-04-09T03:48:29;42.17;;;24.85;;
13847;SDS011;6994;49.752;6.094;2023-04-09T03:50:56;42.85;;;25.33;;
13847;SDS011;6994;49.752;6.094;2023-04-09T03:53:23;44.70;;;25.05;;
13847;SDS011;6994;49.752;6.094;2023-04-09T03:55:51;40.92;;;23.83;;
13847;SDS011;6994;49.752;6.094;2023-04-09T03:58:18;41.05;;;23.30;;
13847;SDS011;6994;49.752;6.094;2023-04-09T04:00:45;42.35;;;25.33;;
13847;SDS011;6994;49.752;6.094;2023-04-09T04:03:12;52.20;;;25.00;;
13847;SDS011;6994;49.752;6.094;2023-04-09T04:05:40;37.00;;;21.85;;
13847;SDS011;6994;49.752;6.094;2023-04-09T04:08:07;42.28;;;23.17;;
13847;SDS011;6994;49.752;6.094;2023-04-09T04:10:35;40.20;;;22.92;;
13847;SDS011;6994;49.752;6.094;2023-04-09T04:13:02;46.20;;;25.25;;
13847;SDS011;6994;49.752;6.094;2023-04-09T04:15:29;42.00;;;24.15;;
13847;SDS011;6994;49.752;6.094;2023-04-09T04:17:56;59.55;;;36.17;;
13847;SDS011;6994;49.752;6.094;2023-04-09T04:20:23;53.17;;;27.75;;
13847;SDS011;6994;49.752;6.094;2023-04-09T04:22:51;61.05;;;36.60;;
13847;SDS011;6994;49.752;6.094;2023-04-09T04:25:18;46.95;;;27.87;;
13847;SDS011;6994;49.752;6.094;2023-04-09T04:27:45;54.00;;;27.87;;
13847;SDS011;6994;49.752;6.094;2023-04-09T04:30:12;53.40;;;27.62;;
13847;SDS011;6994;49.752;6.094;2023-04-09T04:32:39;48.78;;;24.60;;
13847;SDS011;6994;49.752;6.094;2023-04-09T04:35:07;49.65;;;25.88;;
13847;SDS011;6994;49.752;6.094;2023-04-09T04:37:34;46.53;;;25.67;;
13847;SDS011;6994;49.752;6.094;2023-04-09T04:40:01;44.03;;;25.12;;
13847;SDS011;6994;49.752;6.094;2023-04-09T04:42:28;48.58;;;25.42;;
13847;SDS011;6994;49.752;6.094;2023-04-09T04:44:56;42.40;;;25.05;;
13847;SDS011;6994;49.752;6.094;2023-04-09T04:47:23;47.30;;;24.02;;
13847;SDS011;6994;49.752;6.094;2023-04-09T04:49:51;45.63;;;23.77;;
13847;SDS011;6994;49.752;6.094;2023-04-09T04:52:18;60.38;;;36.25;;
13847;SDS011;6994;49.752;6.094;2023-04-09T04:54:45;49.42;;;27.52;;
13847;SDS011;6994;49.752;6.094;2023-04-09T04:57:12;52.38;;;26.25;;
13847;SDS011;6994;49.752;6.094;2023-04-09T04:59:40;44.03;;;24.02;;
13847;SDS011;6994;49.752;6.094;2023-04-09T05:02:07;57.13;;;33.67;;
13847;SDS011;6994;49.752;6.094;2023-04-09T05:04:34;49.05;;;26.02;;
13847;SDS011;6994;49.752;6.094;2023-04-09T05:07:01;45.30;;;24.60;;
13847;SDS011;6994;49.752;6.094;2023-04-09T05:09:28;49.55;;;24.70;;
13847;SDS011;6994;49.752;6.094;2023-04-09T05:11:56;43.63;;;22.80;;
13847;SDS011;6994;49.752;6.094;2023-04-09T05:14:24;41.58;;;21.35;;
13847;SDS011;6994;49.752;6.094;2023-04-09T05:19:10;40.97;;;21.95;;
13847;SDS011;6994;49.752;6.094;2023-04-09T05:21:37;41.30;;;22.77;;
13847;SDS011;6994;49.752;6.094;2023-04-09T05:24:05;39.80;;;23.40;;
13847;SDS011;6994;49.752;6.094;2023-04-09T05:26:33;65.07;;;36.13;;
13847;SDS011;6994;49.752;6.094;2023-04-09T05:29:00;52.88;;;27.67;;
13847;SDS011;6994;49.752;6.094;2023-04-09T05:31:27;55.30;;;26.55;;
13847;SDS011;6994;49.752;6.094;2023-04-09T05:33:54;50.45;;;25.00;;
13847;SDS011;6994;49.752;6.094;2023-04-09T05:36:21;47.55;;;24.63;;
13847;SDS011;6994;49.752;6.094;2023-04-09T05:38:49;51.80;;;26.02;;
13847;SDS011;6994;49.752;6.094;2023-04-09T05:41:17;48.45;;;24.50;;
13847;SDS011;6994;49.752;6.094;2023-04-09T05:43:44;51.08;;;24.55;;
13847;SDS011;6994;49.752;6.094;2023-04-09T05:46:11;67.90;;;38.05;;
13847;SDS011;6994;49.752;6.094;2023-04-09T05:48:38;64.50;;;30.60;;
13847;SDS011;6994;49.752;6.094;2023-04-09T05:51:05;55.35;;;27.73;;
13847;SDS011;6994;49.752;6.094;2023-04-09T05:53:33;57.88;;;27.37;;
13847;SDS011;6994;49.752;6.094;2023-04-09T05:56:00;49.15;;;25.73;;
13847;SDS011;6994;49.752;6.094;2023-04-09T05:58:28;56.50;;;27.90;;
13847;SDS011;6994;49.752;6.094;2023-04-09T06:00:55;52.85;;;26.62;;
13847;SDS011;6994;49.752;6.094;2023-04-09T06:03:22;51.13;;;25.85;;
13847;SDS011;6994;49.752;6.094;2023-04-09T06:05:49;48.58;;;24.52;;
13847;SDS011;6994;49.752;6.094;2023-04-09T06:08:17;46.58;;;22.83;;
13847;SDS011;6994;49.752;6.094;2023-04-09T06:10:44;57.62;;;33.80;;
13847;SDS011;6994;49.752;6.094;2023-04-09T06:13:11;54.00;;;26.87;;
13847;SDS011;6994;49.752;6.094;2023-04-09T06:15:38;64.85;;;36.00;;
13847;SDS011;6994;49.752;6.094;2023-04-09T06:18:05;53.05;;;27.05;;
13847;SDS011;6994;49.752;6.094;2023-04-09T06:20:33;46.42;;;25.12;;
13847;SDS011;6994;49.752;6.094;2023-04-09T06:23:00;46.60;;;24.02;;
13847;SDS011;6994;49.752;6.094;2023-04-09T06:25:27;47.47;;;26.10;;
13847;SDS011;6994;49.752;6.094;2023-04-09T06:27:54;51.75;;;26.35;;
13847;SDS011;6994;49.752;6.094;2023-04-09T06:30:21;53.42;;;27.67;;
13847;SDS011;6994;49.752;6.094;2023-04-09T06:32:49;54.22;;;27.65;;
13847;SDS011;6994;49.752;6.094;2023-04-09T06:35:16;61.35;;;28.35;;
13847;SDS011;6994;49.752;6.094;2023-04-09T06:37:43;64.80;;;37.97;;
13847;SDS011;6994;49.752;6.094;2023-04-09T06:40:10;60.15;;;31.58;;
13847;SDS011;6994;49.752;6.094;2023-04-09T06:42:37;58.17;;;31.55;;
13847;SDS011;6994;49.752;6.094;2023-04-09T06:45:05;53.95;;;28.17;;
13847;SDS011;6994;49.752;6.094;2023-04-09T06:47:32;53.28;;;29.33;;
13847;SDS011;6994;49.752;6.094;2023-04-09T06:49:59;50.53;;;28.50;;
13847;SDS011;6994;49.752;6.094;2023-04-09T06:52:26;60.92;;;31.52;;
13847;SDS011;6994;49.752;6.094;2023-04-09T06:54:54;55.72;;;29.20;;
13847;SDS011;6994;49.752;6.094;2023-04-09T06:57:22;52.78;;;29.33;;
13847;SDS011;6994;49.752;6.094;2023-04-09T06:59:50;52.08;;;30.05;;
13847;SDS011;6994;49.752;6.094;2023-04-09T07:02:17;56.25;;;31.70;;
13847;SDS011;6994;49.752;6.094;2023-04-09T07:04:44;59.47;;;29.65;;
13847;SDS011;6994;49.752;6.094;2023-04-09T07:07:11;53.97;;;29.85;;
13847;SDS011;6994;49.752;6.094;2023-04-09T07:09:38;47.88;;;29.48;;
13847;SDS011;6994;49.752;6.094;2023-04-09T07:12:06;56.58;;;37.10;;
13847;SDS011;6994;49.752;6.094;2023-04-09T07:14:33;50.70;;;30.30;;
13847;SDS011;6994;49.752;6.094;2023-04-09T07:17:00;50.40;;;31.00;;
13847;SDS011;6994;49.752;6.094;2023-04-09T07:19:28;53.22;;;29.83;;
13847;SDS011;6994;49.752;6.094;2023-04-09T07:21:55;52.20;;;29.60;;
13847;SDS011;6994;49.752;6.094;2023-04-09T07:24:22;50.72;;;30.37;;
13847;SDS011;6994;49.752;6.094;2023-04-09T07:26:50;48.87;;;28.77;;
13847;SDS011;6994;49.752;6.094;2023-04-09T07:29:17;49.88;;;29.60;;
13847;SDS011;6994;49.752;6.094;2023-04-09T07:31:44;41.85;;;27.55;;
13847;SDS011;6994;49.752;6.094;2023-04-09T07:34:11;45.50;;;27.62;;
13847;SDS011;6994;49.752;6.094;2023-04-09T07:36:38;45.67;;;27.70;;
13847;SDS011;6994;49.752;6.094;2023-04-09T07:39:06;42.50;;;26.65;;
13847;SDS011;6994;49.752;6.094;2023-04-09T07:41:33;39.97;;;24.27;;
13847;SDS011;6994;49.752;6.094;2023-04-09T07:44:00;36.58;;;25.35;;
13847;SDS011;6994;49.752;6.094;2023-04-09T07:46:27;35.13;;;23.83;;
13847;SDS011;6994;49.752;6.094;2023-04-09T07:48:55;29.23;;;19.77;;
13847;SDS011;6994;49.752;6.094;2023-04-09T07:51:23;31.60;;;21.23;;
13847;SDS011;6994;49.752;6.094;2023-04-09T07:53:50;28.55;;;20.00;;
13847;SDS011;6994;49.752;6.094;2023-04-09T07:56:17;30.35;;;23.70;;
13847;SDS011;6994;49.752;6.094;2023-04-09T07:58:44;24.00;;;17.90;;
13847;SDS011;6994;49.752;6.094;2023-04-09T08:01:11;27.77;;;20.73;;
13847;SDS011;6994;49.752;6.094;2023-04-09T08:03:38;24.33;;;18.25;;
13847;SDS011;6994;49.752;6.094;2023-04-09T08:06:06;24.25;;;16.92;;
13847;SDS011;6994;49.752;6.094;2023-04-09T08:08:34;20.42;;;15.63;;
13847;SDS011;6994;49.752;6.094;2023-04-09T08:11:01;22.70;;;16.52;;
13847;SDS011;6994;49.752;6.094;2023-04-09T08:13:28;20.73;;;15.43;;
13847;SDS011;6994;49.752;6.094;2023-04-09T08:15:55;22.48;;;14.95;;
13847;SDS011;6994;49.752;6.094;2023-04-09T08:18:22;19.12;;;13.13;;
13847;SDS011;6994;49.752;6.094;2023-04-09T08:20:50;19.08;;;16.37;;
13847;SDS011;6994;49.752;6.094;2023-04-09T08:23:17;16.25;;;14.05;;
13847;SDS011;6994;49.752;6.094;2023-04-09T08:25:44;17.98;;;13.32;;
13847;SDS011;6994;49.752;6.094;2023-04-09T08:28:12;18.92;;;13.52;;
13847;SDS011;6994;49.752;6.094;2023-04-09T08:30:40;18.27;;;13.62;;
13847;SDS011;6994;49.752;6.094;2023-04-09T08:33:07;20.92;;;13.55;;
13847;SDS011;6994;49.752;6.094;2023-04-09T08:35:34;17.87;;;13.93;;
13847;SDS011;6994;49.752;6.094;2023-04-09T08:38:02;18.52;;;15.45;;
13847;SDS011;6994;49.752;6.094;2023-04-09T08:40:32;17.45;;;14.30;;
13847;SDS011;6994;49.752;6.094;2023-04-09T08:42:56;16.77;;;12.37;;
13847;SDS011;6994;49.752;6.094;2023-04-09T08:45:23;16.25;;;13.80;;
13847;SDS011;6994;49.752;6.094;2023-04-09T08:47:50;16.05;;;12.40;;
13847;SDS011;6994;49.752;6.094;2023-04-09T08:50:18;18.52;;;15.65;;
13847;SDS011;6994;49.752;6.094;2023-04-09T08:52:45;17.05;;;13.65;;
13847;SDS011;6994;49.752;6.094;2023-04-09T08:55:12;12.65;;;10.60;;
13847;SDS011;6994;49.752;6.094;2023-04-09T08:57:39;11.57;;;9.85;;
13847;SDS011;6994;49.752;6.094;2023-04-09T09:00:07;11.68;;;9.75;;
13847;SDS011;6994;49.752;6.094;2023-04-09T09:02:34;14.52;;;12.75;;
13847;SDS011;6994;49.752;6.094;2023-04-09T09:05:01;13.15;;;10.95;;
13847;SDS011;6994;49.752;6.094;2023-04-09T09:07:29;12.85;;;10.63;;
13847;SDS011;6994;49.752;6.094;2023-04-09T09:09:56;12.45;;;9.70;;
13847;SDS011;6994;49.752;6.094;2023-04-09T09:12:36;11.98;;;10.23;;
13847;SDS011;6994;49.752;6.094;2023-04-09T09:15:05;11.90;;;10.65;;
13847;SDS011;6994;49.752;6.094;2023-04-09T09:17:33;11.18;;;9.35;;
13847;SDS011;6994;49.752;6.094;2023-04-09T09:19:59;9.65;;;8.65;;
13847;SDS011;6994;49.752;6.094;2023-04-09T09:22:26;10.20;;;9.00;;
13847;SDS011;6994;49.752;6.094;2023-04-09T09:24:54;11.27;;;9.07;;
13847;SDS011;6994;49.752;6.094;2023-04-09T09:27:33;8.70;;;7.80;;
13847;SDS011;6994;49.752;6.094;2023-04-09T09:30:00;8.93;;;7.28;;
13847;SDS011;6994;49.752;6.094;2023-04-09T09:32:27;9.55;;;7.53;;
13847;SDS011;6994;49.752;6.094;2023-04-09T09:35:01;9.32;;;8.32;;
13847;SDS011;6994;49.752;6.094;2023-04-09T09:37:28;11.68;;;8.35;;
13847;SDS011;6994;49.752;6.094;2023-04-09T09:39:55;6.93;;;5.82;;
13847;SDS011;6994;49.752;6.094;2023-04-09T09:42:22;8.18;;;6.35;;
13847;SDS011;6994;49.752;6.094;2023-04-09T09:44:49;7.00;;;6.05;;
13847;SDS011;6994;49.752;6.094;2023-04-09T09:47:19;7.28;;;6.57;;
13847;SDS011;6994;49.752;6.094;2023-04-09T09:49:47;11.90;;;8.18;;
13847;SDS011;6994;49.752;6.094;2023-04-09T09:52:13;8.50;;;6.55;;
13847;SDS011;6994;49.752;6.094;2023-04-09T09:54:41;7.55;;;6.68;;
13847;SDS011;6994;49.752;6.094;2023-04-09T09:57:08;8.50;;;6.12;;
13847;SDS011;6994;49.752;6.094;2023-04-09T10:00:10;6.00;;;5.40;;
13847;SDS011;6994;49.752;6.094;2023-04-09T10:02:17;7.53;;;5.57;;
13847;SDS011;6994;49.752;6.094;2023-04-09T10:04:44;6.25;;;4.55;;
13847;SDS011;6994;49.752;6.094;2023-04-09T10:07:11;4.93;;;4.45;;
13847;SDS011;6994;49.752;6.094;2023-04-09T10:09:39;5.72;;;4.28;;
13847;SDS011;6994;49.752;6.094;2023-04-09T10:12:06;6.22;;;4.43;;
13847;SDS011;6994;49.752;6.094;2023-04-09T10:14:35;5.50;;;4.22;;
13847;SDS011;6994;49.752;6.094;2023-04-09T10:17:02;4.68;;;4.18;;
13847;SDS011;6994;49.752;6.094;2023-04-09T10:19:34;4.75;;;3.95;;
13847;SDS011;6994;49.752;6.094;2023-04-09T10:22:07;4.60;;;4.20;;
13847;SDS011;6994;49.752;6.094;2023-04-09T10:24:32;5.40;;;4.40;;
13847;SDS011;6994;49.752;6.094;2023-04-09T10:27:12;4.75;;;4.32;;
13847;SDS011;6994;49.752;6.094;2023-04-09T10:29:36;4.57;;;4.18;;
13847;SDS011;6994;49.752;6.094;2023-04-09T10:32:03;5.28;;;3.85;;
13847;SDS011;6994;49.752;6.094;2023-04-09T10:34:31;5.00;;;4.60;;
13847;SDS011;6994;49.752;6.094;2023-04-09T10:36:57;4.22;;;3.80;;
13847;SDS011;6994;49.752;6.094;2023-04-09T10:39:29;4.47;;;3.92;;
13847;SDS011;6994;49.752;6.094;2023-04-09T10:41:55;4.12;;;3.72;;
13847;SDS011;6994;49.752;6.094;2023-04-09T10:44:23;4.50;;;4.10;;
13847;SDS011;6994;49.752;6.094;2023-04-09T10:46:53;4.32;;;3.92;;
13847;SDS011;6994;49.752;6.094;2023-04-09T10:49:21;4.55;;;4.15;;
13847;SDS011;6994;49.752;6.094;2023-04-09T10:51:51;5.00;;;4.50;;
13847;SDS011;6994;49.752;6.094;2023-04-09T11:02:07;5.57;;;4.30;;
13847;SDS011;6994;49.752;6.094;2023-04-09T11:04:38;6.12;;;4.62;;
13847;SDS011;6994;49.752;6.094;2023-04-09T11:07:04;5.68;;;5.07;;
13847;SDS011;6994;49.752;6.094;2023-04-09T11:09:34;4.20;;;3.80;;
13847;SDS011;6994;49.752;6.094;2023-04-09T11:12:01;5.18;;;4.68;;
13847;SDS011;6994;49.752;6.094;2023-04-09T11:14:28;4.68;;;4.20;;
13847;SDS011;6994;49.752;6.094;2023-04-09T11:16:55;4.93;;;4.43;;
13847;SDS011;6994;49.752;6.094;2023-04-09T11:19:23;5.78;;;5.28;;
13847;SDS011;6994;49.752;6.094;2023-04-09T11:21:51;5.93;;;5.15;;
13847;SDS011;6994;49.752;6.094;2023-04-09T11:24:18;5.53;;;4.40;;
13847;SDS011;6994;49.752;6.094;2023-04-09T11:26:46;5.40;;;4.90;;
13847;SDS011;6994;49.752;6.094;2023-04-09T11:29:12;6.25;;;4.93;;
13847;SDS011;6994;49.752;6.094;2023-04-09T11:31:44;4.87;;;3.97;;
13847;SDS011;6994;49.752;6.094;2023-04-09T11:34:08;4.50;;;4.10;;
13847;SDS011;6994;49.752;6.094;2023-04-09T11:36:34;4.85;;;4.35;;
13847;SDS011;6994;49.752;6.094;2023-04-09T11:39:01;4.40;;;4.07;;
13847;SDS011;6994;49.752;6.094;2023-04-09T11:41:34;5.57;;;5.07;;
13847;SDS011;6994;49.752;6.094;2023-04-09T11:44:05;5.40;;;4.90;;
13847;SDS011;6994;49.752;6.094;2023-04-09T11:46:29;7.68;;;4.93;;
13847;SDS011;6994;49.752;6.094;2023-04-09T11:48:56;5.15;;;4.65;;
13847;SDS011;6994;49.752;6.094;2023-04-09T11:51:25;5.20;;;4.70;;
13847;SDS011;6994;49.752;6.094;2023-04-09T11:53:51;4.45;;;3.87;;
13847;SDS011;6994;49.752;6.094;2023-04-09T11:56:18;4.93;;;4.35;;
13847;SDS011;6994;49.752;6.094;2023-04-09T11:58:46;4.03;;;3.58;;
13847;SDS011;6994;49.752;6.094;2023-04-09T12:01:13;4.10;;;3.80;;
13847;SDS011;6994;49.752;6.094;2023-04-09T12:03:40;4.10;;;3.80;;
13847;SDS011;6994;49.752;6.094;2023-04-09T12:06:07;4.70;;;4.30;;
13847;SDS011;6994;49.752;6.094;2023-04-09T12:08:35;4.62;;;4.22;;
13847;SDS011;6994;49.752;6.094;2023-04-09T12:11:08;5.25;;;4.25;;
13847;SDS011;6994;49.752;6.094;2023-04-09T12:13:35;4.65;;;4.15;;
13847;SDS011;6994;49.752;6.094;2023-04-09T12:16:02;4.35;;;3.95;;
13847;SDS011;6994;49.752;6.094;2023-04-09T12:18:29;4.65;;;4.25;;
13847;SDS011;6994;49.752;6.094;2023-04-09T12:20:57;5.00;;;4.28;;
13847;SDS011;6994;49.752;6.094;2023-04-09T12:23:24;5.12;;;4.60;;
13847;SDS011;6994;49.752;6.094;2023-04-09T12:25:51;4.55;;;4.15;;
13847;SDS011;6994;49.752;6.094;2023-04-09T12:28:18;4.70;;;4.30;;
13847;SDS011;6994;49.752;6.094;2023-04-09T12:30:45;4.97;;;4.57;;
13847;SDS011;6994;49.752;6.094;2023-04-09T12:33:13;5.03;;;4.62;;
13847;SDS011;6994;49.752;6.094;2023-04-09T12:35:40;5.35;;;4.50;;
13847;SDS011;6994;49.752;6.094;2023-04-09T12:38:07;4.80;;;4.22;;
13847;SDS011;6994;49.752;6.094;2023-04-09T12:40:34;4.50;;;4.10;;
13847;SDS011;6994;49.752;6.094;2023-04-09T12:43:02;4.00;;;3.70;;
13847;SDS011;6994;49.752;6.094;2023-04-09T12:45:30;4.15;;;3.80;;
13847;SDS011;6994;49.752;6.094;2023-04-09T12:47:57;4.82;;;4.32;;
13847;SDS011;6994;49.752;6.094;2023-04-09T12:50:24;4.55;;;4.15;;
13847;SDS011;6994;49.752;6.094;2023-04-09T12:52:51;4.15;;;3.75;;
13847;SDS011;6994;49.752;6.094;2023-04-09T12:55:18;4.32;;;3.92;;
13847;SDS011;6994;49.752;6.094;2023-04-09T12:57:48;4.53;;;4.12;;
13847;SDS011;6994;49.752;6.094;2023-04-09T13:00:13;4.70;;;4.12;;
13847;SDS011;6994;49.752;6.094;2023-04-09T13:02:40;5.05;;;4.65;;
13847;SDS011;6994;49.752;6.094;2023-04-09T13:05:07;4.82;;;4.43;;
13847;SDS011;6994;49.752;6.094;2023-04-09T13:07:34;5.32;;;4.82;;
13847;SDS011;6994;49.752;6.094;2023-04-09T13:10:02;4.93;;;4.05;;
13847;SDS011;6994;49.752;6.094;2023-04-09T13:12:29;5.12;;;4.60;;
13847;SDS011;6994;49.752;6.094;2023-04-09T13:14:56;4.65;;;3.40;;
13847;SDS011;6994;49.752;6.094;2023-04-09T13:17:23;3.78;;;3.47;;
13847;SDS011;6994;49.752;6.094;2023-04-09T13:19:50;3.22;;;2.97;;
13847;SDS011;6994;49.752;6.094;2023-04-09T13:22:18;4.20;;;3.80;;
13847;SDS011;6994;49.752;6.094;2023-04-09T13:24:46;3.80;;;3.50;;
13847;SDS011;6994;49.752;6.094;2023-04-09T13:27:13;3.58;;;3.28;;
13847;SDS011;6994;49.752;6.094;2023-04-09T13:29:40;3.80;;;3.50;;
13847;SDS011;6994;49.752;6.094;2023-04-09T13:32:07;4.93;;;4.53;;
13847;SDS011;6994;49.752;6.094;2023-04-09T13:34:35;3.95;;;3.55;;
13847;SDS011;6994;49.752;6.094;2023-04-09T13:37:02;4.12;;;3.83;;
13847;SDS011;6994;49.752;6.094;2023-04-09T13:39:29;3.78;;;3.47;;
13847;SDS011;6994;49.752;6.094;2023-04-09T13:41:56;3.97;;;3.55;;
13847;SDS011;6994;49.752;6.094;2023-04-09T13:44:23;4.35;;;3.95;;
13847;SDS011;6994;49.752;6.094;2023-04-09T13:46:50;4.05;;;3.75;;
13847;SDS011;6994;49.752;6.094;2023-04-09T13:49:18;4.47;;;4.07;;
13847;SDS011;6994;49.752;6.094;2023-04-09T13:51:45;3.42;;;3.15;;
13847;SDS011;6994;49.752;6.094;2023-04-09T13:54:13;3.85;;;3.55;;
13847;SDS011;6994;49.752;6.094;2023-04-09T13:56:40;4.30;;;3.90;;
13847;SDS011;6994;49.752;6.094;2023-04-09T13:59:07;3.17;;;2.87;;
13847;SDS011;6994;49.752;6.094;2023-04-09T14:01:34;4.22;;;3.83;;
13847;SDS011;6994;49.752;6.094;2023-04-09T14:04:02;3.92;;;3.62;;
13847;SDS011;6994;49.752;6.094;2023-04-09T14:06:29;4.15;;;3.75;;
13847;SDS011;6994;49.752;6.094;2023-04-09T14:08:56;3.90;;;3.58;;
13847;SDS011;6994;49.752;6.094;2023-04-09T14:11:23;4.70;;;3.28;;
13847;SDS011;6994;49.752;6.094;2023-04-09T14:13:50;3.58;;;3.28;;
13847;SDS011;6994;49.752;6.094;2023-04-09T14:16:18;3.70;;;3.40;;
13847;SDS011;6994;49.752;6.094;2023-04-09T14:18:46;3.37;;;3.08;;
13847;SDS011;6994;49.752;6.094;2023-04-09T14:21:14;3.67;;;3.37;;
13847;SDS011;6994;49.752;6.094;2023-04-09T14:23:41;3.12;;;2.90;;
13847;SDS011;6994;49.752;6.094;2023-04-09T14:26:08;3.15;;;2.95;;
13847;SDS011;6994;49.752;6.094;2023-04-09T14:28:35;3.60;;;3.40;;
13847;SDS011;6994;49.752;6.094;2023-04-09T14:31:02;3.60;;;3.30;;
13847;SDS011;6994;49.752;6.094;2023-04-09T14:33:30;3.10;;;2.90;;
13847;SDS011;6994;49.752;6.094;2023-04-09T14:35:57;3.92;;;3.62;;
13847;SDS011;6994;49.752;6.094;2023-04-09T14:38:24;2.80;;;2.60;;
13847;SDS011;6994;49.752;6.094;2023-04-09T14:40:51;3.22;;;3.03;;
13847;SDS011;6994;49.752;6.094;2023-04-09T14:43:18;3.30;;;3.10;;
13847;SDS011;6994;49.752;6.094;2023-04-09T14:45:46;3.05;;;2.85;;
13847;SDS011;6994;49.752;6.094;2023-04-09T14:48:14;3.20;;;3.00;;
13847;SDS011;6994;49.752;6.094;2023-04-09T14:50:42;3.00;;;2.67;;
13847;SDS011;6994;49.752;6.094;2023-04-09T14:53:10;3.25;;;3.05;;
13847;SDS011;6994;49.752;6.094;2023-04-09T14:55:37;2.97;;;2.78;;
13847;SDS011;6994;49.752;6.094;2023-04-09T14:58:04;2.97;;;2.78;;
13847;SDS011;6994;49.752;6.094;2023-04-09T15:00:31;3.10;;;2.80;;
13847;SDS011;6994;49.752;6.094;2023-04-09T15:02:58;3.37;;;3.08;;
13847;SDS011;6994;49.752;6.094;2023-04-09T15:05:26;3.20;;;2.92;;
13847;SDS011;6994;49.752;6.094;2023-04-09T15:07:53;3.30;;;3.10;;
13847;SDS011;6994;49.752;6.094;2023-04-09T15:10:20;3.00;;;2.80;;